メインページ
METAR-TAF:

METAR-TAF

空港 :

ニノイ・アキノ国際空港

マニラ, フィリピン

緯度: 14-31N, 経度: 121-00E, 海抜: 14m

現時点の気象観測

当レポートは24分前の12:00(UTC)に作成
の風 7kt
気温 28°C
湿度 70%
気圧 1012 hPa
視程10km以上
高度2500ftの雲はほとんどない

METAR: RPLL 141200Z 09007KT 9999 FEW025 28/22 Q1012 NOSIG RMK A2988

時間: 20:24 (12:24 UTC)

予報

当レポートは1時間24分前の11:00(UTC)に作成
予報は14日の 12時(UTC)から 15日の 18時(UTC)まで有効
東/南東の風 8kt
視程10km以上
高度2500ftの雲はほとんどない
14日の 12時(UTC)から 14日の 18時(UTC)まで一時的に
の風 10kt
高度2300ftの雲はほとんどない
14日の 18時(UTC)から 14日の 24時(UTC)まで一時的に
北東の風 7kt
高度2300ftの雲はほとんどない
高度10000ftの千切れ雲あり

TAF: RPLL 141100Z 1412/1518 11008KT 9999 FEW025 TX33/1507Z TN25/1422Z TEMPO 1412/1418 08010KT FEW023 TEMPO 1418/1424 05007KT FEW023 BKN100

4,000以上の空港の気象観測と天気予報(METAR報とTAF報)

利用可能な観測所は地図上に黄色い丸と赤い丸で示す。

丸の上にカーソルを重ねると観測所名を参照できる。

次にクリックすると気象観測と天気予報を参照できる。

マップの切り替え:黒色「×」印の緑ボタンをクリックして拡大、「-」印の緑ボタンをクリックして縮小、緑色の三角印をクリックして隣りの地図に切り替え


METAR-TAF: